Time;durP1;ratioP1;P1;durP2;ratioP2;P2;SDS_P1;SDS_P2;PMS_P1;PMS_P2;Temp;Humidity;BMP_temperature;BMP_pressure;BME280_temperature;BME280_humidity;BME280_pressure;Samples;Min_cycle;Max_cycle;Signal;HPM_P1;HPM_P2
2023/03/07 00:00:04;;;;;;;8.25;3.83;;;;;;;-7.16;54.80;95807.03;6321586;28;20082;-67
2023/03/07 00:03:06;;;;;;;6.85;3.70;;;;;;;-7.07;54.82;95812.06;6321806;28;20047;-67
2023/03/07 00:06:13;;;;;;;6.45;3.33;;;;;;;-7.02;54.84;95821.38;6321913;28;20040;-67
2023/03/07 00:09:19;;;;;;;9.15;3.58;;;;;;;-6.90;54.64;95829.75;6321769;28;20051;-67
2023/03/07 00:12:21;;;;;;;;;;;;;;;-6.81;54.52;95820.22;6321774;28;20552;-67
2023/03/07 00:15:24;;;;;;;6.03;3.60;;;;;;;-6.77;55.10;95816.72;6321739;28;19920;-67
2023/03/07 00:18:31;;;;;;;7.72;3.53;;;;;;;-6.73;54.17;95826.94;6321647;28;20438;-66
2023/03/07 00:21:33;;;;;;;7.63;3.60;;;;;;;-6.64;54.81;95827.66;6320936;28;20501;-67
2023/03/07 00:24:39;;;;;;;7.22;4.00;;;;;;;-6.59;54.64;95823.31;6321436;28;20040;-66
2023/03/07 00:27:44;;;;;;;5.43;3.47;;;;;;;-6.55;54.34;95813.88;6321352;28;20048;-67
2023/03/07 00:30:49;;;;;;;7.15;3.85;;;;;;;-6.53;54.56;95809.59;6321287;28;20097;-67
2023/03/07 00:33:54;;;;;;;6.45;4.10;;;;;;;-6.55;54.58;95801.06;6321121;28;20610;-67
2023/03/07 00:36:59;;;;;;;5.93;4.03;;;;;;;-6.48;54.79;95797.56;6321117;28;20134;-67
2023/03/07 00:40:05;;;;;;;9.57;4.35;;;;;;;-6.47;54.93;95794.13;6321318;28;20463;-67
2023/03/07 00:43:10;;;;;;;15.38;4.18;;;;;;;-6.41;54.94;95786.34;6320883;28;20157;-67
2023/03/07 00:46:24;;;;;;;7.88;3.45;;;;;;;-6.37;55.00;95792.25;6320755;28;20101;-67
2023/03/07 00:49:29;;;;;;;6.20;3.55;;;;;;;-6.40;55.42;95784.63;6320817;28;20040;-67
2023/03/07 00:52:34;;;;;;;11.45;3.83;;;;;;;-6.34;55.28;95784.53;6320681;28;20545;-67
2023/03/07 00:55:40;;;;;;;10.23;4.90;;;;;;;-6.22;55.54;95773.25;6320690;28;20101;-67
2023/03/07 00:58:47;;;;;;;7.85;3.78;;;;;;;-6.12;55.47;95759.41;6320381;28;20097;-67
2023/03/07 01:01:52;;;;;;;11.02;4.32;;;;;;;-6.05;55.81;95755.88;6320526;28;20069;-67
2023/03/07 01:04:57;;;;;;;7.53;4.18;;;;;;;-6.00;55.69;95743.84;6320910;28;20130;-67
2023/03/07 01:08:02;;;;;;;7.50;4.00;;;;;;;-5.90;55.11;95740.19;6320293;28;20515;-67
2023/03/07 01:11:05;;;;;;;;;;;;;;;-5.82;55.40;95734.94;6320817;28;20044;-67
2023/03/07 01:14:12;;;;;;;11.48;4.25;;;;;;;-5.82;55.29;95726.41;6320205;28;20033;-68
2023/03/07 01:17:17;;;;;;;12.10;3.60;;;;;;;-5.78;55.24;95717.78;6319937;28;20093;-68
2023/03/07 01:20:20;;;;;;;;;;;;;;;-5.64;54.89;95721.75;6320330;28;20105;-67
2023/03/07 01:23:24;;;;;;;5.93;3.85;;;;;;;-5.61;54.93;95720.84;6320038;28;19965;-67
2023/03/07 01:26:29;;;;;;;;;;;;;;;-5.57;55.58;95722.47;6319227;28;20036;-66
2023/03/07 01:29:34;;;;;;;10.07;4.38;;;;;;;-5.60;55.00;95725.09;6320264;28;20041;-67
2023/03/07 01:32:37;;;;;;;;;;;;;;;-5.49;54.82;95725.72;6320035;28;20096;-68
2023/03/07 01:35:42;;;;;;;12.43;4.50;;;;;;;-5.49;54.68;95725.72;6318600;28;20064;-67
2023/03/07 01:38:49;;;;;;;10.98;5.25;;;;;;;-5.49;55.46;95730.88;6320063;28;20104;-67
2023/03/07 01:41:54;;;;;;;13.55;6.45;;;;;;;-5.53;55.75;95723.25;6319407;28;20497;-67
2023/03/07 01:45:27;;;;;;;11.07;5.50;;;;;;;-5.46;55.58;95730.78;6319583;28;20097;-67
2023/03/07 01:48:32;;;;;;;8.45;5.20;;;;;;;-5.49;55.22;95725.72;6319660;28;20093;-68
2023/03/07 01:51:35;;;;;;;;;;;;;;;-5.52;55.83;95718.09;6319568;28;20056;-67
2023/03/07 01:54:47;;;;;;;13.68;5.45;;;;;;;-5.58;55.73;95710.53;6319431;28;20397;-67
2023/03/07 01:57:53;;;;;;;15.73;6.10;;;;;;;-5.60;56.40;95704.59;6319309;28;20139;-66
2023/03/07 02:00:57;;;;;;;13.13;5.35;;;;;;;-5.57;56.38;95714.78;6319088;28;20048;-68
2023/03/07 02:04:10;;;;;;;13.90;5.80;;;;;;;-5.57;56.47;95711.41;6319153;28;20083;-67
2023/03/07 02:07:13;;;;;;;18.42;7.10;;;;;;;-5.60;56.32;95712.28;6318840;28;20429;-67
2023/03/07 02:10:20;;;;;;;19.23;7.45;;;;;;;-5.62;57.07;95703.78;6318704;28;20055;-68
2023/03/07 02:13:21;;;;;;;18.27;7.90;;;;;;;-5.60;56.61;95706.31;6318255;28;20055;-68
2023/03/07 02:16:25;;;;;;;19.00;8.40;;;;;;;-5.63;57.34;95704.66;6317285;28;20118;-68
2023/03/07 02:19:47;;;;;;;17.90;8.20;;;;;;;-5.62;58.24;95698.66;6318631;28;20127;-68
2023/03/07 02:22:53;;;;;;;21.60;9.93;;;;;;;-5.62;57.79;95693.53;6318629;28;20052;-68
2023/03/07 02:26:10;;;;;;;18.67;9.15;;;;;;;-5.61;58.34;95690.09;6316969;28;20048;-68
2023/03/07 02:29:16;;;;;;;29.88;10.35;;;;;;;-5.60;58.37;95696.06;6318916;28;20044;-68
2023/03/07 02:32:19;;;;;;;17.48;8.52;;;;;;;-5.58;58.60;95696.88;6318342;28;20048;-67
2023/03/07 02:35:24;;;;;;;19.20;9.57;;;;;;;-5.56;58.72;95693.41;6318444;28;20044;-67
2023/03/07 02:38:32;;;;;;;17.00;9.73;;;;;;;-5.51;58.44;95694.16;6318656;28;20135;-67
2023/03/07 02:41:34;;;;;;;18.48;9.50;;;;;;;-5.52;58.54;95682.22;6318424;28;20048;-66
2023/03/07 02:44:38;;;;;;;18.00;9.55;;;;;;;-5.54;58.87;95681.41;6318558;28;20648;-68
2023/03/07 02:47:43;;;;;;;23.25;8.85;;;;;;;-5.49;59.08;95684.72;6318372;28;20044;-67
2023/03/07 02:50:48;;;;;;;16.05;9.90;;;;;;;-5.44;58.97;95674.34;6318762;28;20052;-68
2023/03/07 02:53:54;;;;;;;19.50;9.32;;;;;;;-5.37;59.20;95665.66;6317268;28;20142;-67
2023/03/07 02:56:56;;;;;;;23.88;10.20;;;;;;;-5.25;59.48;95664.53;6318191;28;20054;-67
2023/03/07 02:59:59;;;;;;;;;;;;;;;-5.17;60.01;95660.09;6318947;28;20032;-67
2023/03/07 03:03:02;;;;;;;24.05;9.38;;;;;;;-5.16;58.77;95656.63;6318316;28;20427;-67
2023/03/07 03:06:04;;;;;;;21.08;10.40;;;;;;;-5.15;59.58;95650.66;6317972;28;20052;-67
2023/03/07 03:09:10;;;;;;;22.05;10.02;;;;;;;-5.06;59.79;95663.25;6318616;28;20486;-68
2023/03/07 03:12:15;;;;;;;24.15;10.73;;;;;;;-5.00;59.56;95657.97;6318456;28;20357;-68
2023/03/07 03:15:19;;;;;;;20.10;10.18;;;;;;;-5.01;59.15;95650.28;6317825;28;20051;-68
2023/03/07 03:18:24;;;;;;;23.08;10.20;;;;;;;-4.98;59.70;95652.81;6317763;28;20048;-67
2023/03/07 03:21:29;;;;;;;26.17;11.77;;;;;;;-4.92;59.85;95659.53;6317957;28;20520;-69
2023/03/07 03:24:42;;;;;;;26.92;11.68;;;;;;;-4.77;59.58;95662.56;6323045;28;20289;-67
2023/03/07 03:27:49;;;;;;;20.70;10.32;;;;;;;-4.79;59.61;95642.94;6323009;28;20337;-68
2023/03/07 03:31:02;;;;;;;23.85;10.85;;;;;;;-4.61;59.44;95657.91;6320542;28;20042;-67
2023/03/07 03:34:08;;;;;;;29.05;10.80;;;;;;;-4.64;59.44;95650.28;6322532;28;20043;-67
2023/03/07 03:37:10;;;;;;;24.08;11.10;;;;;;;-4.52;59.24;95642.25;6322068;28;20068;-68
2023/03/07 03:40:16;;;;;;;19.63;10.95;;;;;;;-4.46;59.19;95642.97;6321863;28;20133;-67
2023/03/07 03:43:22;;;;;;;27.63;12.13;;;;;;;-4.53;59.42;95648.28;6322385;28;20520;-68
2023/03/07 03:46:25;;;;;;;25.60;12.55;;;;;;;-4.54;59.52;95641.44;6322509;28;20036;-67
2023/03/07 03:49:30;;;;;;;22.20;12.60;;;;;;;-4.52;59.50;95641.41;6322239;28;20040;-67
2023/03/07 03:52:39;;;;;;;29.33;12.90;;;;;;;-4.49;60.01;95648.19;6321901;28;20056;-67
2023/03/07 03:55:40;;;;;;;26.10;12.60;;;;;;;-4.41;59.73;95636.84;6321360;28;20094;-67
2023/03/07 03:58:47;;;;;;;31.17;13.77;;;;;;;-4.33;59.68;95629.78;6322513;28;20120;-68
2023/03/07 04:01:50;;;;;;;27.77;12.18;;;;;;;-4.27;59.50;95639.06;6322453;28;20489;-67
2023/03/07 04:04:51;;;;;;;27.77;12.95;;;;;;;-4.18;59.73;95637.97;6321386;28;20052;-67
2023/03/07 04:07:53;;;;;;;28.80;12.43;;;;;;;-4.09;59.50;95632.56;6321356;28;20040;-68
2023/03/07 04:10:58;;;;;;;26.90;11.82;;;;;;;-3.98;59.15;95642.56;6321193;28;20075;-68
2023/03/07 04:13:59;;;;;;;27.27;11.88;;;;;;;-3.91;59.45;95636.34;6320914;28;20457;-68
2023/03/07 04:17:01;;;;;;;31.50;14.20;;;;;;;-3.88;58.86;95626.84;6320972;28;20043;-67
2023/03/07 04:20:03;;;;;;;31.83;15.88;;;;;;;-3.90;59.18;95627.78;6320667;28;20135;-68
2023/03/07 04:23:08;;;;;;;25.23;13.57;;;;;;;-3.87;58.66;95612.25;6320514;28;20059;-67
2023/03/07 04:26:11;;;;;;;32.65;15.27;;;;;;;-3.77;58.90;95628.25;6321534;28;20040;-68
2023/03/07 04:29:17;;;;;;;26.33;13.57;;;;;;;-3.72;58.54;95622.09;6321351;28;20402;-67
2023/03/07 04:32:21;;;;;;;33.72;12.95;;;;;;;-3.66;58.48;95621.91;6320457;28;20055;-67
2023/03/07 04:35:27;;;;;;;38.13;15.02;;;;;;;-3.56;58.34;95637.09;6321027;28;20040;-67
2023/03/07 04:38:29;;;;;;;39.47;15.52;;;;;;;-3.47;58.18;95623.94;6320337;28;20047;-66
2023/03/07 04:41:33;;;;;;;52.33;19.23;;;;;;;-3.41;58.15;95622.03;6319914;28;20517;-68
2023/03/07 04:44:36;;;;;;;49.67;17.77;;;;;;;-3.33;58.05;95618.38;6320598;28;20048;-67
2023/03/07 04:47:40;;;;;;;64.20;26.02;;;;;;;-3.23;57.52;95610.34;6320972;28;20040;-67
2023/03/07 04:50:47;;;;;;;39.50;18.92;;;;;;;-3.04;57.67;95608.03;6320923;28;20044;-67
2023/03/07 04:53:51;;;;;;;48.63;20.15;;;;;;;-2.98;57.25;95614.69;6320378;28;20048;-66
2023/03/07 04:56:52;;;;;;;42.42;19.90;;;;;;;-2.87;56.95;95602.31;6320043;28;20051;-67
2023/03/07 04:59:59;;;;;;;46.65;20.20;;;;;;;-2.76;56.96;95605.41;6320493;28;20036;-68
2023/03/07 05:03:00;;;;;;;;;;;;;;;-2.61;56.99;95604.03;6319451;28;20139;-67
2023/03/07 05:06:11;;;;;;;51.95;22.20;;;;;;;-2.51;56.26;95586.56;6320359;28;19920;-67
2023/03/07 05:09:13;;;;;;;50.10;24.40;;;;;;;-2.31;56.44;95598.75;6320112;28;20047;-68
2023/03/07 05:12:14;;;;;;;62.85;26.10;;;;;;;-2.32;56.33;95589.31;6319541;28;20421;-67
2023/03/07 05:15:18;;;;;;;58.03;24.13;;;;;;;-2.15;56.57;95591.31;6319829;28;20044;-66
2023/03/07 05:18:20;;;;;;;59.95;26.50;;;;;;;-1.97;56.51;95585.50;6320083;28;20058;-67
2023/03/07 05:21:23;;;;;;;57.47;26.45;;;;;;;-1.83;56.36;95585.84;6319940;28;20082;-67
2023/03/07 05:24:25;;;;;;;48.00;21.27;;;;;;;-1.93;55.58;95584.47;6318893;28;20044;-67
2023/03/07 05:27:27;;;;;;;54.45;24.58;;;;;;;-2.17;55.87;95578.50;6319659;28;20032;-67
2023/03/07 05:30:29;;;;;;;58.95;23.27;;;;;;;-2.37;55.31;95570.63;6319783;28;20126;-67
2023/03/07 05:33:35;;;;;;;46.80;20.75;;;;;;;-2.44;55.74;95566.56;6319603;28;20044;-67
2023/03/07 05:36:40;;;;;;;46.45;23.67;;;;;;;-2.37;55.66;95575.78;6319479;28;20051;-68
2023/03/07 05:39:43;;;;;;;44.67;20.20;;;;;;;-2.31;55.71;95568.66;6319418;28;20031;-70
2023/03/07 05:42:45;;;;;;;54.03;22.42;;;;;;;-2.29;55.62;95573.78;6319331;28;20047;-67
2023/03/07 05:45:46;;;;;;;54.65;23.55;;;;;;;-2.31;55.49;95557.53;6318108;28;20078;-68
2023/03/07 05:48:47;;;;;;;49.10;22.63;;;;;;;-2.12;55.43;95555.13;6319723;28;20040;-68
2023/03/07 05:51:49;;;;;;;50.40;22.40;;;;;;;-1.96;55.59;95556.25;6319062;28;20052;-67
2023/03/07 05:54:57;;;;;;;48.38;20.85;;;;;;;-1.75;55.23;95548.63;6319789;28;20039;-67
2023/03/07 05:57:58;;;;;;;61.97;29.70;;;;;;;-1.75;54.82;95536.56;6318248;28;20452;-67
2023/03/07 06:01:05;;;;;;;46.58;22.30;;;;;;;-1.39;55.10;95547.22;6318578;28;20052;-68
2023/03/07 06:04:12;;;;;;;40.53;18.58;;;;;;;-1.14;54.81;95536.72;6319252;28;20040;-68
2023/03/07 06:07:20;;;;;;;32.50;17.90;;;;;;;-0.99;54.81;95529.25;6319343;28;20048;-68
2023/03/07 06:10:25;;;;;;;39.53;17.95;;;;;;;-0.84;54.95;95520.06;6319000;28;20063;-67
2023/03/07 06:13:26;;;;;;;32.15;15.73;;;;;;;-0.60;54.26;95521.59;6319243;28;20035;-67
2023/03/07 06:16:31;;;;;;;32.00;14.27;;;;;;;-0.37;53.96;95527.53;6318328;28;20059;-67
2023/03/07 06:19:35;;;;;;;25.92;13.20;;;;;;;-0.19;53.44;95526.72;6318859;28;20044;-67
2023/03/07 06:22:40;;;;;;;27.63;12.70;;;;;;;-0.03;53.58;95519.97;6318724;28;20055;-68
2023/03/07 06:25:44;;;;;;;27.52;11.43;;;;;;;0.20;52.54;95512.94;6318618;28;20059;-67
2023/03/07 06:28:49;;;;;;;27.55;11.15;;;;;;;0.32;53.39;95522.69;6319065;28;20048;-67
2023/03/07 06:31:52;;;;;;;22.73;11.57;;;;;;;0.28;52.48;95510.81;6318977;28;20560;-69
2023/03/07 06:34:56;;;;;;;25.30;11.95;;;;;;;0.35;52.65;95501.84;6318121;28;20044;-69
2023/03/07 06:38:01;;;;;;;22.50;10.77;;;;;;;0.67;52.41;95512.44;6318249;28;20138;-67
2023/03/07 06:41:05;;;;;;;22.63;11.52;;;;;;;0.85;51.58;95501.22;6318194;28;20139;-68
2023/03/07 06:44:10;;;;;;;27.77;11.98;;;;;;;1.14;51.26;95501.53;6318369;28;20075;-67
2023/03/07 06:47:12;;;;;;;23.10;11.38;;;;;;;1.34;51.01;95503.97;6318645;28;20133;-67
2023/03/07 06:50:16;;;;;;;27.65;13.32;;;;;;;1.48;51.19;95499.84;6318189;28;20135;-67
2023/03/07 06:53:19;;;;;;;29.27;12.38;;;;;;;1.66;50.94;95504.06;6317998;28;20073;-68
2023/03/07 06:56:28;;;;;;;31.98;14.63;;;;;;;1.78;50.32;95503.44;6319281;28;20048;-68
2023/03/07 06:59:34;;;;;;;31.45;15.15;;;;;;;1.92;49.95;95507.06;6322991;28;20213;-67
2023/03/07 07:02:36;;;;;;;31.67;15.85;;;;;;;1.92;49.48;95509.66;6323272;28;20514;-69
2023/03/07 07:05:38;;;;;;;51.88;21.23;;;;;;;1.67;49.79;95510.94;6322613;28;20044;-69
2023/03/07 07:08:39;;;;;;;58.45;25.77;;;;;;;1.43;50.02;95507.00;6322799;28;20386;-66
2023/03/07 07:11:40;;;;;;;67.90;29.98;;;;;;;1.30;49.74;95509.38;6322929;28;20047;-67
2023/03/07 07:14:46;;;;;;;56.70;27.60;;;;;;;1.20;50.15;95506.41;6323165;28;20040;-66
2023/03/07 07:17:51;;;;;;;58.75;27.42;;;;;;;1.18;50.69;95508.22;6322833;28;20043;-67
2023/03/07 07:20:56;;;;;;;55.92;26.85;;;;;;;1.37;50.42;95502.13;6322544;28;20051;-68
2023/03/07 07:23:58;;;;;;;51.08;23.73;;;;;;;1.39;49.31;95505.47;6320038;28;20150;-67
2023/03/07 07:27:02;;;;;;;38.40;18.33;;;;;;;1.18;49.78;95495.28;6322421;28;20040;-67
2023/03/07 07:30:04;;;;;;;37.05;16.98;;;;;;;1.10;50.12;95500.00;6322550;28;20051;-67
2023/03/07 07:33:09;;;;;;;23.27;12.30;;;;;;;1.16;49.72;95497.13;6322253;28;20575;-67
2023/03/07 07:36:10;;;;;;;23.50;12.05;;;;;;;1.12;49.94;95490.41;6322307;28;20390;-67
2023/03/07 07:39:16;;;;;;;15.48;8.35;;;;;;;1.02;49.05;95487.44;6321604;28;20127;-66
2023/03/07 07:42:17;;;;;;;17.42;9.15;;;;;;;0.67;49.84;95499.50;6321726;28;20370;-67
2023/03/07 07:45:21;;;;;;;14.50;8.48;;;;;;;0.53;49.59;95483.78;6322250;28;20040;-67
2023/03/07 07:48:23;;;;;;;18.85;9.18;;;;;;;0.94;50.07;95488.72;6321527;28;20143;-67
2023/03/07 07:51:27;;;;;;;20.77;9.85;;;;;;;2.30;48.56;95486.03;6321905;28;20063;-67
2023/03/07 07:54:32;;;;;;;23.35;10.15;;;;;;;3.91;45.52;95482.81;6321320;28;20109;-67
2023/03/07 07:57:36;;;;;;;28.40;11.68;;;;;;;3.94;44.96;95480.00;6321721;28;20047;-68
2023/03/07 08:00:39;;;;;;;20.80;10.60;;;;;;;4.01;45.95;95478.69;6321894;28;20045;-67
2023/03/07 08:03:41;;;;;;;23.05;11.35;;;;;;;4.14;45.74;95477.97;6321205;28;20539;-67
2023/03/07 08:06:45;;;;;;;18.45;9.88;;;;;;;5.00;45.46;95477.72;6321869;28;20130;-69
2023/03/07 08:09:58;;;;;;;23.02;10.52;;;;;;;5.82;43.64;95466.97;6320243;28;20134;-68
2023/03/07 08:13:02;;;;;;;17.00;9.10;;;;;;;5.60;43.36;95471.97;6321729;28;20405;-67
2023/03/07 08:16:17;;;;;;;21.15;9.52;;;;;;;5.23;43.33;95464.00;6321522;28;20093;-67
2023/03/07 08:19:21;;;;;;;23.13;11.50;;;;;;;4.77;43.69;95467.00;6321209;28;20048;-69
2023/03/07 08:22:23;;;;;;;20.90;10.15;;;;;;;4.60;44.04;95462.88;6320478;28;20051;-68
2023/03/07 08:25:29;;;;;;;22.33;10.48;;;;;;;4.60;44.17;95455.06;6321756;28;20036;-67
2023/03/07 08:28:40;;;;;;;20.45;10.25;;;;;;;4.95;45.55;95450.19;6321422;28;20079;-68
2023/03/07 08:31:50;;;;;;;23.33;12.10;;;;;;;5.51;44.11;95446.50;6321071;28;20185;-67
2023/03/07 08:34:53;;;;;;;25.17;13.02;;;;;;;5.94;42.32;95443.59;6321019;28;20048;-68
2023/03/07 08:38:00;;;;;;;23.90;12.48;;;;;;;5.90;41.74;95437.72;6320895;28;20040;-68
2023/03/07 08:41:08;;;;;;;24.80;12.43;;;;;;;6.29;41.40;95439.38;6321253;28;20040;-67
2023/03/07 08:44:13;;;;;;;26.35;13.95;;;;;;;6.95;39.78;95432.00;6320878;28;20580;-68
2023/03/07 08:47:16;;;;;;;30.45;15.73;;;;;;;6.65;39.91;95403.72;6320598;28;20076;-68
2023/03/07 08:50:18;;;;;;;29.08;13.88;;;;;;;7.17;39.77;95430.41;6320526;28;20510;-68
2023/03/07 08:53:24;;;;;;;23.00;14.00;;;;;;;7.76;39.13;95432.91;6320691;28;20043;-68
2023/03/07 08:56:29;;;;;;;25.30;13.43;;;;;;;8.28;38.15;95434.09;6320670;28;20121;-68
2023/03/07 08:59:38;;;;;;;27.38;14.68;;;;;;;8.73;37.47;95448.97;6320637;28;20036;-68
2023/03/07 09:02:42;;;;;;;27.75;13.18;;;;;;;9.02;36.98;95427.41;6320103;28;20052;-69
2023/03/07 09:05:48;;;;;;;24.45;13.38;;;;;;;9.26;36.92;95432.44;6320493;28;20584;-68
2023/03/07 09:08:52;;;;;;;24.08;11.73;;;;;;;9.40;35.77;95427.72;6319376;28;20055;-67
2023/03/07 09:11:56;;;;;;;27.67;11.80;;;;;;;8.78;35.70;95436.31;6319805;28;20047;-68
2023/03/07 09:15:03;;;;;;;19.88;10.07;;;;;;;9.15;34.19;95433.31;6320386;28;20126;-68
2023/03/07 09:18:10;;;;;;;16.75;8.25;;;;;;;13.24;29.38;95435.09;6319948;28;20043;-70
2023/03/07 09:21:16;;;;;;;15.93;8.40;;;;;;;17.04;24.46;95425.78;6318770;28;20119;-68
2023/03/07 09:24:20;;;;;;;11.57;7.07;;;;;;;20.42;21.30;95428.63;6319399;28;20055;-69
2023/03/07 09:27:23;;;;;;;14.27;6.70;;;;;;;21.49;20.10;95425.44;6319247;28;20055;-68
2023/03/07 09:30:27;;;;;;;;;;;;;;;22.23;21.36;95429.00;6319597;28;20051;-68
2023/03/07 09:33:35;;;;;;;8.02;5.15;;;;;;;19.78;21.55;95418.06;6319834;28;19920;-67
2023/03/07 09:36:42;;;;;;;8.52;4.78;;;;;;;17.98;23.13;95412.34;6319706;28;20044;-67
2023/03/07 09:39:51;;;;;;;7.50;4.25;;;;;;;16.31;23.99;95413.66;6319916;28;20044;-69
2023/03/07 09:43:00;;;;;;;10.07;5.55;;;;;;;16.07;24.89;95425.97;6318781;28;20048;-68
2023/03/07 09:46:25;;;;;;;9.48;4.75;;;;;;;17.44;22.62;95424.72;6319987;28;20056;-69
2023/03/07 09:49:39;;;;;;;7.20;4.70;;;;;;;20.07;19.75;95420.56;6319408;28;20044;-67
2023/03/07 09:52:43;;;;;;;6.68;4.50;;;;;;;18.89;20.69;95432.50;6318917;28;20092;-68
2023/03/07 09:55:51;;;;;;;5.25;3.05;;;;;;;16.03;22.84;95432.63;6318914;28;20032;-68
2023/03/07 09:59:02;;;;;;;5.28;4.00;;;;;;;13.80;25.09;95430.47;6318615;28;20063;-68
2023/03/07 10:02:30;;;;;;;4.70;3.65;;;;;;;12.64;26.67;95432.97;6319218;28;20497;-68
2023/03/07 10:05:38;;;;;;;4.18;3.50;;;;;;;12.83;26.33;95437.31;6319505;28;20036;-67
2023/03/07 10:08:42;;;;;;;6.25;3.47;;;;;;;11.47;27.43;95445.69;6319097;28;20047;-68
2023/03/07 10:12:23;;;;;;;8.52;4.28;;;;;;;9.40;29.88;95456.59;6319157;28;20044;-67
2023/03/07 10:15:44;;;;;;;11.20;4.90;;;;;;;8.56;31.43;95452.09;6319051;28;20085;-68
2023/03/07 10:18:51;;;;;;;6.63;4.30;;;;;;;8.24;31.44;95455.44;6318415;28;20048;-69
2023/03/07 10:22:07;;;;;;;8.60;5.28;;;;;;;8.73;31.37;95465.53;6318101;28;20051;-68
2023/03/07 10:25:23;;;;;;;8.73;5.72;;;;;;;11.27;28.55;95460.66;6318313;28;20059;-68
2023/03/07 10:28:30;;;;;;;9.85;5.20;;;;;;;14.35;24.69;95477.75;6318407;28;20055;-68
2023/03/07 10:31:36;;;;;;;7.57;4.75;;;;;;;15.87;23.08;95472.41;6320736;28;20055;-68
2023/03/07 10:34:42;;;;;;;8.07;4.60;;;;;;;17.69;21.19;95472.41;6324038;28;20039;-68
2023/03/07 10:37:50;;;;;;;7.47;4.40;;;;;;;19.11;19.64;95478.72;6323878;28;20036;-68
2023/03/07 10:41:04;;;;;;;6.82;3.90;;;;;;;19.67;19.38;95489.63;6323528;28;20040;-69
2023/03/07 10:44:14;;;;;;;8.82;5.03;;;;;;;19.22;19.43;95480.88;6323805;28;20494;-68
2023/03/07 10:47:27;;;;;;;8.40;4.78;;;;;;;18.52;20.00;95474.19;6323737;28;20200;-68
2023/03/07 10:51:23;;;;;;;8.88;4.32;;;;;;;18.30;20.24;95472.41;6323563;28;20051;-68
2023/03/07 10:54:29;;;;;;;6.10;3.92;;;;;;;19.70;18.63;95491.91;6291182;28;20135;-67
2023/03/07 10:57:40;;;;;;;5.90;3.42;;;;;;;19.97;18.52;95505.50;6324084;28;20135;-68
2023/03/07 11:00:45;;;;;;;6.80;3.00;;;;;;;19.86;18.53;95519.34;6323526;28;20421;-67
2023/03/07 11:03:57;;;;;;;5.22;3.58;;;;;;;19.86;19.28;95514.84;6323051;28;20048;-68
2023/03/07 11:07:03;;;;;;;7.00;3.88;;;;;;;20.27;18.57;95516.88;6323282;28;20130;-68
2023/03/07 11:10:24;;;;;;;;;;;;;;;20.42;18.34;95519.44;6322107;28;20040;-68
2023/03/07 11:13:31;;;;;;;4.10;2.58;;;;;;;17.44;19.65;95528.44;6323173;28;20368;-68
2023/03/07 11:16:47;;;;;;;5.50;2.38;;;;;;;13.99;23.31;95529.94;6323293;28;20035;-68
2023/03/07 11:19:56;;;;;;;4.70;2.70;;;;;;;11.64;25.61;95510.81;6322695;28;20134;-68
2023/03/07 11:23:13;;;;;;;4.87;2.80;;;;;;;9.57;28.11;95520.00;6322464;28;20044;-66
2023/03/07 11:26:21;;;;;;;4.72;2.38;;;;;;;7.84;30.64;95513.50;6322481;28;20485;-67
2023/03/07 11:29:24;;;;;;;5.95;2.70;;;;;;;6.45;32.42;95532.31;6322311;28;20082;-67
2023/03/07 11:32:29;;;;;;;4.38;3.13;;;;;;;6.15;33.60;95530.91;6322662;28;20040;-67
2023/03/07 11:35:56;;;;;;;;;;;;;;;7.08;31.84;95526.09;6322629;28;20105;-68
2023/03/07 11:39:02;;;;;;;5.28;3.20;;;;;;;8.01;30.66;95520.06;6322298;28;20144;-67
2023/03/07 11:42:23;;;;;;;3.03;2.17;;;;;;;8.90;29.43;95529.75;6319782;28;20137;-68
2023/03/07 11:46:01;;;;;;;3.63;2.50;;;;;;;9.59;28.83;95541.69;6322133;28;20101;-67
2023/03/07 11:49:28;;;;;;;2.75;2.15;;;;;;;10.18;27.63;95548.19;6296070;28;20050;-67
2023/03/07 11:52:44;;;;;;;3.17;2.30;;;;;;;8.80;28.59;95539.28;6320780;28;20494;-68
2023/03/07 11:55:52;;;;;;;1.95;1.80;;;;;;;7.05;30.71;95552.47;6321846;28;20040;-68
2023/03/07 11:59:26;;;;;;;2.67;1.30;;;;;;;6.68;31.42;95557.72;6321651;28;20036;-68
2023/03/07 12:02:37;;;;;;;1.55;1.38;;;;;;;7.52;30.19;95563.84;6321672;28;20040;-68
2023/03/07 12:06:05;;;;;;;2.50;1.38;;;;;;;8.52;28.76;95567.69;6321469;28;20071;-68
2023/03/07 12:09:42;;;;;;;1.63;1.02;;;;;;;9.29;27.34;95579.19;6321803;28;20101;-68
2023/03/07 12:13:17;;;;;;;0.77;0.70;;;;;;;9.07;26.97;95574.81;6321537;28;20098;-68
2023/03/07 12:16:38;;;;;;;1.00;0.90;;;;;;;8.26;27.39;95587.16;6321585;28;20075;-68
2023/03/07 12:20:06;;;;;;;2.70;0.85;;;;;;;7.38;28.68;95595.44;6321381;28;20047;-67
2023/03/07 12:23:22;;;;;;;0.68;0.60;;;;;;;6.82;29.46;95597.69;6321320;28;20040;-68
2023/03/07 12:26:30;;;;;;;1.05;0.75;;;;;;;6.59;30.21;95601.94;6321170;28;20040;-67
2023/03/07 12:29:37;;;;;;;1.52;1.00;;;;;;;5.44;31.30;95607.84;6321368;28;20139;-69
2023/03/07 12:32:39;;;;;;;2.05;1.00;;;;;;;4.16;32.59;95601.03;6320488;28;20071;-67
2023/03/07 12:35:49;;;;;;;0.80;0.80;;;;;;;4.20;32.81;95603.38;6321284;28;20185;-68
2023/03/07 12:39:25;;;;;;;1.73;1.10;;;;;;;4.27;32.80;95624.66;6321096;28;20035;-68
2023/03/07 12:42:43;;;;;;;2.88;1.02;;;;;;;4.15;32.90;95625.41;6294056;28;20098;-68
2023/03/07 12:46:19;;;;;;;1.67;1.00;;;;;;;4.11;33.46;95629.13;6320736;28;20093;-68
2023/03/07 12:49:35;;;;;;;1.42;1.20;;;;;;;4.42;33.19;95634.19;6320726;28;20506;-68
2023/03/07 12:52:47;;;;;;;0.98;0.93;;;;;;;4.52;32.88;95638.81;6318819;28;20147;-68
2023/03/07 12:55:56;;;;;;;1.77;0.88;;;;;;;4.17;32.94;95640.00;6319939;28;20072;-67
2023/03/07 12:59:12;;;;;;;0.77;0.70;;;;;;;3.57;33.88;95651.28;6320686;28;20040;-67
2023/03/07 13:02:27;;;;;;;2.25;1.27;;;;;;;2.65;35.46;95650.28;6319769;28;20091;-67
2023/03/07 13:05:36;;;;;;;1.87;1.10;;;;;;;1.62;37.16;95655.53;6320400;28;20097;-68
2023/03/07 13:08:43;;;;;;;2.50;1.45;;;;;;;0.97;38.63;95670.72;6319252;28;20136;-67
2023/03/07 13:12:09;;;;;;;1.85;1.30;;;;;;;0.58;39.19;95689.72;6320409;28;20117;-67
2023/03/07 13:15:21;;;;;;;1.77;1.63;;;;;;;0.13;41.45;95687.41;6320322;28;20550;-67
2023/03/07 13:18:29;;;;;;;1.65;1.20;;;;;;;-0.37;42.59;95693.75;6320041;28;20097;-68
2023/03/07 13:21:36;;;;;;;2.22;1.73;;;;;;;-0.85;42.64;95691.38;6320146;28;20506;-68
2023/03/07 13:24:43;;;;;;;4.40;2.42;;;;;;;-1.09;43.70;95709.50;6319908;28;20097;-67
2023/03/07 13:27:58;;;;;;;3.42;2.10;;;;;;;-1.41;44.12;95716.72;6319791;28;20093;-68
2023/03/07 13:31:20;;;;;;;4.72;1.85;;;;;;;-1.57;44.38;95718.16;6319388;28;20567;-66
2023/03/07 13:34:47;;;;;;;4.97;2.25;;;;;;;-1.77;45.06;95730.91;6319683;28;20093;-67
2023/03/07 13:37:57;;;;;;;2.38;1.80;;;;;;;-2.05;45.62;95745.56;6319638;28;20509;-68
2023/03/07 13:41:04;;;;;;;3.10;1.90;;;;;;;-2.18;45.68;95743.44;6319546;28;20044;-67
2023/03/07 13:44:39;;;;;;;2.95;1.48;;;;;;;-2.33;46.31;95758.53;6319592;28;20072;-67
2023/03/07 13:47:44;;;;;;;4.90;2.33;;;;;;;-2.43;47.28;95764.88;6319351;28;20612;-68
2023/03/07 13:50:50;;;;;;;2.67;1.80;;;;;;;-2.61;48.26;95774.00;6319102;28;20094;-68
2023/03/07 13:54:11;;;;;;;1.95;1.35;;;;;;;-2.72;49.49;95782.06;6319012;28;20641;-68
2023/03/07 13:57:19;;;;;;;3.05;1.70;;;;;;;-2.81;50.19;95787.47;6319250;28;20439;-67
2023/03/07 14:00:31;;;;;;;4.53;2.35;;;;;;;-3.01;50.76;95800.09;6319374;28;20039;-68
2023/03/07 14:03:41;;;;;;;3.78;2.55;;;;;;;-3.21;51.46;95798.94;6319026;28;20531;-69
2023/03/07 14:07:14;;;;;;;5.28;1.98;;;;;;;-3.36;51.31;95812.22;6319162;28;20405;-67
2023/03/07 14:10:30;;;;;;;3.58;2.38;;;;;;;-3.56;51.35;95820.47;6290375;28;20109;-68
2023/03/07 14:14:29;;;;;;;5.10;2.72;;;;;;;-3.66;51.43;95825.00;6319023;28;20101;-68
2023/03/07 14:17:54;;;;;;;4.38;2.30;;;;;;;-3.86;51.76;95840.09;6241372;28;20071;-68
2023/03/07 14:21:40;;;;;;;2.78;1.85;;;;;;;-3.93;51.31;95854.00;6248435;28;20080;-68
2023/03/07 14:24:48;;;;;;;3.03;1.70;;;;;;;-3.90;51.22;95864.19;6299966;28;20075;-68
2023/03/07 14:27:57;;;;;;;2.65;2.28;;;;;;;-3.87;50.69;95867.53;6318669;28;20457;-67
2023/03/07 14:31:04;;;;;;;2.30;2.10;;;;;;;-3.87;50.36;95874.41;6318498;28;20055;-67
2023/03/07 14:34:16;;;;;;;4.03;2.35;;;;;;;-4.08;50.79;95888.56;6319001;28;20044;-67
2023/03/07 14:37:25;;;;;;;4.10;1.98;;;;;;;-4.15;50.25;95894.75;6318735;28;20047;-68
2023/03/07 14:40:39;;;;;;;6.63;3.45;;;;;;;-4.22;50.34;95909.44;6318730;28;20123;-68
2023/03/07 14:44:08;;;;;;;;;;;;;;;-4.25;49.95;95909.50;6319181;28;20044;-68